createdAt,value
2018-09-26T00:07:15.206Z,1014.38
2018-09-26T00:17:15.180Z,1014.52
2018-09-26T00:27:15.193Z,1014.63
2018-09-26T00:37:15.199Z,1014.60
2018-09-26T00:47:15.144Z,1014.71
2018-09-26T00:57:15.355Z,1014.51
2018-09-26T01:07:15.279Z,1014.63
2018-09-26T01:17:15.242Z,1014.69
2018-09-26T01:27:15.178Z,1014.33
2018-09-26T01:37:15.241Z,1014.20
2018-09-26T01:47:15.201Z,1014.00
2018-09-26T01:57:15.204Z,1014.07
2018-09-26T02:07:15.151Z,1014.22
2018-09-26T02:17:15.388Z,1014.12
2018-09-26T02:27:15.166Z,1014.29
2018-09-26T02:37:15.366Z,1014.30
2018-09-26T02:47:15.176Z,1014.16
2018-09-26T02:57:15.123Z,1014.24
2018-09-26T03:07:15.198Z,1013.92
2018-09-26T03:17:15.106Z,1013.88
2018-09-26T03:27:15.118Z,1013.88
2018-09-26T03:37:15.192Z,1013.89
2018-09-26T03:47:15.137Z,1013.84
2018-09-26T03:57:15.175Z,1013.79
2018-09-26T04:07:15.145Z,1013.80
2018-09-26T04:17:15.477Z,1013.92
2018-09-26T04:27:15.333Z,1013.98
2018-09-26T04:37:15.173Z,1013.81
2018-09-26T04:47:15.158Z,1013.95
2018-09-26T04:57:15.110Z,1014.14
2018-09-26T05:07:16.205Z,1014.12
2018-09-26T05:17:15.119Z,1014.06
2018-09-26T05:27:15.116Z,1014.17
2018-09-26T05:37:15.131Z,1014.03
2018-09-26T05:47:15.213Z,1014.14
2018-09-26T05:57:15.243Z,1014.05
2018-09-26T06:07:15.038Z,1013.99
2018-09-26T06:17:15.035Z,1014.02
2018-09-26T06:27:15.103Z,1013.99
2018-09-26T06:37:15.138Z,1014.00
2018-09-26T06:47:15.079Z,1013.98
2018-09-26T06:57:15.119Z,1013.94
2018-09-26T07:07:16.041Z,1013.90
2018-09-26T07:17:15.033Z,1013.75
2018-09-26T07:27:15.158Z,1013.78
2018-09-26T07:37:15.208Z,1013.76
2018-09-26T07:47:16.013Z,1013.62
2018-09-26T07:57:16.060Z,1013.66
2018-09-26T08:07:15.757Z,1013.87
2018-09-26T08:17:15.314Z,1013.81
2018-09-26T08:27:15.083Z,1013.97
2018-09-26T08:37:15.113Z,1013.96
2018-09-26T08:47:16.077Z,1013.95
2018-09-26T08:57:15.037Z,1013.88
2018-09-26T09:07:15.112Z,1013.92
2018-09-26T09:17:15.075Z,1013.82
2018-09-26T09:27:15.267Z,1013.84
2018-09-26T09:37:15.137Z,1013.70
2018-09-26T09:47:15.063Z,1013.58
2018-09-26T09:57:15.124Z,1013.63
2018-09-26T10:07:15.057Z,1013.55
2018-09-26T10:17:15.641Z,1013.65
2018-09-26T10:27:15.168Z,1013.62
2018-09-26T10:37:15.126Z,1013.62
2018-09-26T10:47:15.183Z,1013.59
2018-09-26T10:57:15.278Z,1013.59
2018-09-26T11:07:15.284Z,1013.63
2018-09-26T11:17:15.230Z,1013.52
2018-09-26T11:27:15.201Z,1013.37
2018-09-26T11:37:16.253Z,1013.33
2018-09-26T11:47:16.114Z,1013.22
2018-09-26T11:57:15.325Z,1013.15
2018-09-26T12:07:15.938Z,1013.04
2018-09-26T12:27:21.890Z,1012.83
2018-09-26T12:37:21.313Z,1012.80
2018-09-26T12:47:21.355Z,1012.58
2018-09-26T12:57:21.363Z,1012.48
2018-09-26T13:07:21.501Z,1012.41
2018-09-26T13:17:21.223Z,1012.40
2018-09-26T13:27:21.517Z,1012.29
2018-09-26T13:37:21.614Z,1012.20
2018-09-26T13:47:21.409Z,1012.16
2018-09-26T13:57:21.186Z,1012.12
2018-09-26T14:07:22.170Z,1012.00
2018-09-26T14:17:21.374Z,1011.96
2018-09-26T14:27:21.252Z,1011.74
2018-09-26T14:57:19.879Z,1011.64
2018-09-26T15:07:19.830Z,1011.59
2018-09-26T15:17:20.827Z,1011.43
2018-09-26T15:27:19.893Z,1011.44
2018-09-26T15:37:19.905Z,1011.48
2018-09-26T15:47:19.951Z,1011.56
2018-09-26T15:57:19.852Z,1011.55
2018-09-26T16:07:19.843Z,1011.49
2018-09-26T16:17:20.043Z,1011.40
2018-09-26T16:27:19.924Z,1011.33
2018-09-26T16:37:19.865Z,1011.39
2018-09-26T16:47:19.914Z,1011.41
2018-09-26T16:57:19.833Z,1011.25
2018-09-26T17:07:19.919Z,1011.24
2018-09-26T17:17:19.887Z,1011.30
2018-09-26T17:27:19.847Z,1011.32
2018-09-26T17:37:19.820Z,1011.29
2018-09-26T17:47:20.038Z,1011.30
2018-09-26T17:57:19.892Z,1011.39
2018-09-26T18:07:20.369Z,1011.48
2018-09-26T18:17:19.916Z,1011.52
2018-09-26T18:27:19.878Z,1011.55
2018-09-26T18:37:19.989Z,1011.63
2018-09-26T18:47:19.928Z,1011.59
2018-09-26T18:57:19.875Z,1011.64
2018-09-26T19:07:22.572Z,1011.60
2018-09-26T19:17:19.853Z,1011.51
2018-09-26T19:27:20.067Z,1011.60
2018-09-26T19:37:19.891Z,1011.71
2018-09-26T19:47:19.926Z,1011.63
2018-09-26T19:57:19.863Z,1011.60
2018-09-26T20:07:20.792Z,1011.76
2018-09-26T20:17:19.865Z,1011.79
2018-09-26T20:27:20.120Z,1011.72
2018-09-26T20:37:19.944Z,1011.66
2018-09-26T20:47:19.823Z,1011.81
2018-09-26T20:57:20.395Z,1011.75
2018-09-26T21:07:19.901Z,1011.77
2018-09-26T21:17:19.982Z,1011.72
2018-09-26T21:27:20.846Z,1011.78
2018-09-26T21:37:19.920Z,1011.81
2018-09-26T21:47:19.971Z,1011.67
2018-09-26T21:57:19.921Z,1011.78
2018-09-26T22:07:20.496Z,1011.82
2018-09-26T22:17:19.920Z,1011.82
2018-09-26T22:27:19.880Z,1011.78
2018-09-26T22:37:19.871Z,1011.96
2018-09-26T22:47:19.945Z,1011.91
2018-09-26T22:57:19.823Z,1011.99
2018-09-26T23:07:19.844Z,1011.75
2018-09-26T23:17:19.895Z,1011.58
2018-09-26T23:27:19.899Z,1011.61
2018-09-26T23:37:19.821Z,1011.52
2018-09-26T23:47:19.906Z,1011.48
2018-09-26T23:57:19.922Z,1011.49
